sensor_id;sensor_type;location;lat;lon;timestamp;P1;durP1;ratioP1;P2;durP2;ratioP2
363;SDS011;173;48.718;9.274;2023-07-09T08:32:58;5.65;;;5.15;;
363;SDS011;173;48.718;9.274;2023-07-09T08:38:03;5.45;;;4.70;;
363;SDS011;173;48.718;9.274;2023-07-09T08:40:46;5.50;;;5.00;;
363;SDS011;173;48.718;9.274;2023-07-09T08:43:32;4.75;;;4.35;;
363;SDS011;173;48.718;9.274;2023-07-09T08:49:41;4.65;;;4.35;;
363;SDS011;173;48.718;9.274;2023-07-09T08:52:38;5.70;;;4.75;;
363;SDS011;173;48.718;9.274;2023-07-09T08:55:22;5.10;;;4.00;;
363;SDS011;173;48.718;9.274;2023-07-09T08:58:02;4.30;;;3.90;;
363;SDS011;173;48.718;9.274;2023-07-09T09:00:41;4.90;;;4.50;;
363;SDS011;173;48.718;9.274;2023-07-09T09:03:40;7.10;;;6.50;;
363;SDS011;173;48.718;9.274;2023-07-09T09:06:25;5.00;;;4.60;;
363;SDS011;173;48.718;9.274;2023-07-09T09:17:54;5.20;;;3.50;;
363;SDS011;173;48.718;9.274;2023-07-09T09:20:30;3.90;;;3.60;;
363;SDS011;173;48.718;9.274;2023-07-09T09:25:47;4.55;;;4.15;;
363;SDS011;173;48.718;9.274;2023-07-09T09:28:24;4.70;;;4.00;;
363;SDS011;173;48.718;9.274;2023-07-09T09:30:57;4.05;;;3.75;;
363;SDS011;173;48.718;9.274;2023-07-09T09:33:36;3.95;;;3.55;;
363;SDS011;173;48.718;9.274;2023-07-09T09:40:43;4.70;;;4.20;;
363;SDS011;173;48.718;9.274;2023-07-09T09:43:17;3.80;;;3.50;;
363;SDS011;173;48.718;9.274;2023-07-09T09:45:52;4.20;;;3.80;;
363;SDS011;173;48.718;9.274;2023-07-09T09:48:31;4.05;;;3.65;;
363;SDS011;173;48.718;9.274;2023-07-09T09:51:04;4.00;;;3.70;;
363;SDS011;173;48.718;9.274;2023-07-09T09:56:54;4.60;;;4.20;;
363;SDS011;173;48.718;9.274;2023-07-09T09:59:30;6.30;;;3.60;;
363;SDS011;173;48.718;9.274;2023-07-09T10:02:15;5.60;;;4.10;;
363;SDS011;173;48.718;9.274;2023-07-09T10:04:52;4.50;;;4.10;;
363;SDS011;173;48.718;9.274;2023-07-09T10:07:30;4.10;;;3.70;;
363;SDS011;173;48.718;9.274;2023-07-09T10:10:14;4.30;;;4.00;;
363;SDS011;173;48.718;9.274;2023-07-09T10:12:50;3.50;;;3.20;;
363;SDS011;173;48.718;9.274;2023-07-09T10:15:40;4.10;;;3.60;;
363;SDS011;173;48.718;9.274;2023-07-09T10:18:24;3.55;;;3.25;;
363;SDS011;173;48.718;9.274;2023-07-09T10:21:06;4.20;;;3.90;;
363;SDS011;173;48.718;9.274;2023-07-09T10:24:04;4.20;;;3.90;;
363;SDS011;173;48.718;9.274;2023-07-09T10:27:10;4.85;;;4.25;;
363;SDS011;173;48.718;9.274;2023-07-09T10:36:33;4.10;;;3.70;;
363;SDS011;173;48.718;9.274;2023-07-09T10:39:32;3.70;;;3.30;;
363;SDS011;173;48.718;9.274;2023-07-09T10:42:11;3.80;;;3.50;;
363;SDS011;173;48.718;9.274;2023-07-09T10:44:56;3.80;;;3.40;;
363;SDS011;173;48.718;9.274;2023-07-09T10:47:32;4.20;;;3.80;;
363;SDS011;173;48.718;9.274;2023-07-09T10:50:09;6.20;;;4.30;;
363;SDS011;173;48.718;9.274;2023-07-09T10:53:05;4.50;;;4.10;;
363;SDS011;173;48.718;9.274;2023-07-09T10:55:42;4.15;;;3.85;;
363;SDS011;173;48.718;9.274;2023-07-09T10:58:35;3.65;;;3.35;;
363;SDS011;173;48.718;9.274;2023-07-09T11:01:19;4.40;;;3.95;;
363;SDS011;173;48.718;9.274;2023-07-09T11:03:53;3.80;;;3.50;;
363;SDS011;173;48.718;9.274;2023-07-09T11:06:29;4.20;;;3.80;;
363;SDS011;173;48.718;9.274;2023-07-09T11:09:20;5.40;;;4.40;;
363;SDS011;173;48.718;9.274;2023-07-09T11:11:55;4.80;;;3.30;;
363;SDS011;173;48.718;9.274;2023-07-09T11:14:41;6.20;;;3.85;;
363;SDS011;173;48.718;9.274;2023-07-09T11:17:14;4.90;;;4.30;;
363;SDS011;173;48.718;9.274;2023-07-09T11:19:55;4.20;;;3.90;;
363;SDS011;173;48.718;9.274;2023-07-09T11:22:37;5.00;;;4.30;;
363;SDS011;173;48.718;9.274;2023-07-09T11:25:14;4.10;;;3.70;;
363;SDS011;173;48.718;9.274;2023-07-09T11:28:02;4.70;;;4.30;;
363;SDS011;173;48.718;9.274;2023-07-09T11:30:54;3.30;;;3.10;;
363;SDS011;173;48.718;9.274;2023-07-09T11:33:28;4.20;;;3.90;;
363;SDS011;173;48.718;9.274;2023-07-09T11:36:14;5.10;;;4.60;;
363;SDS011;173;48.718;9.274;2023-07-09T11:38:57;7.55;;;5.45;;
363;SDS011;173;48.718;9.274;2023-07-09T11:41:43;5.50;;;4.20;;
363;SDS011;173;48.718;9.274;2023-07-09T11:44:25;4.97;;;4.57;;
363;SDS011;173;48.718;9.274;2023-07-09T11:47:12;4.20;;;3.80;;
363;SDS011;173;48.718;9.274;2023-07-09T11:49:56;5.20;;;4.80;;
363;SDS011;173;48.718;9.274;2023-07-09T11:55:58;4.80;;;3.70;;
363;SDS011;173;48.718;9.274;2023-07-09T11:58:30;8.27;;;4.60;;
363;SDS011;173;48.718;9.274;2023-07-09T12:01:02;3.90;;;3.60;;
363;SDS011;173;48.718;9.274;2023-07-09T12:03:39;5.75;;;5.05;;
363;SDS011;173;48.718;9.274;2023-07-09T12:06:21;6.75;;;6.15;;
363;SDS011;173;48.718;9.274;2023-07-09T12:09:00;4.20;;;3.90;;
363;SDS011;173;48.718;9.274;2023-07-09T12:11:36;5.10;;;4.60;;
363;SDS011;173;48.718;9.274;2023-07-09T12:16:50;4.85;;;4.45;;
363;SDS011;173;48.718;9.274;2023-07-09T12:19:23;4.85;;;4.35;;
363;SDS011;173;48.718;9.274;2023-07-09T12:21:58;5.75;;;4.65;;
363;SDS011;173;48.718;9.274;2023-07-09T12:24:36;4.95;;;4.55;;
363;SDS011;173;48.718;9.274;2023-07-09T12:27:22;4.00;;;3.70;;
363;SDS011;173;48.718;9.274;2023-07-09T12:29:56;4.20;;;3.80;;
363;SDS011;173;48.718;9.274;2023-07-09T12:32:28;5.15;;;4.25;;
363;SDS011;173;48.718;9.274;2023-07-09T12:35:00;5.30;;;4.80;;
363;SDS011;173;48.718;9.274;2023-07-09T12:37:32;4.70;;;4.20;;
363;SDS011;173;48.718;9.274;2023-07-09T12:40:05;4.70;;;4.40;;
363;SDS011;173;48.718;9.274;2023-07-09T12:42:42;4.40;;;4.10;;
363;SDS011;173;48.718;9.274;2023-07-09T12:45:15;4.65;;;4.25;;
363;SDS011;173;48.718;9.274;2023-07-09T12:47:49;5.20;;;4.70;;
363;SDS011;173;48.718;9.274;2023-07-09T12:50:27;4.10;;;3.70;;
363;SDS011;173;48.718;9.274;2023-07-09T12:53:02;4.50;;;4.10;;
363;SDS011;173;48.718;9.274;2023-07-09T12:55:48;5.30;;;4.80;;
363;SDS011;173;48.718;9.274;2023-07-09T12:58:29;7.20;;;6.60;;
363;SDS011;173;48.718;9.274;2023-07-09T13:01:04;4.45;;;4.05;;
363;SDS011;173;48.718;9.274;2023-07-09T13:03:58;4.00;;;3.70;;
363;SDS011;173;48.718;9.274;2023-07-09T13:06:34;4.40;;;4.00;;
363;SDS011;173;48.718;9.274;2023-07-09T13:09:09;4.60;;;4.15;;
363;SDS011;173;48.718;9.274;2023-07-09T13:11:44;4.50;;;4.10;;
363;SDS011;173;48.718;9.274;2023-07-09T13:14:18;4.60;;;4.20;;
363;SDS011;173;48.718;9.274;2023-07-09T13:17:05;4.30;;;3.90;;
363;SDS011;173;48.718;9.274;2023-07-09T13:19:40;4.10;;;3.70;;
363;SDS011;173;48.718;9.274;2023-07-09T13:22:15;4.80;;;4.15;;
363;SDS011;173;48.718;9.274;2023-07-09T13:24:50;4.90;;;3.85;;
363;SDS011;173;48.718;9.274;2023-07-09T13:27:22;4.10;;;3.80;;
363;SDS011;173;48.718;9.274;2023-07-09T13:29:54;4.15;;;3.85;;
363;SDS011;173;48.718;9.274;2023-07-09T13:32:26;4.80;;;4.40;;
363;SDS011;173;48.718;9.274;2023-07-09T13:34:58;4.10;;;3.80;;
363;SDS011;173;48.718;9.274;2023-07-09T13:37:30;4.90;;;4.35;;
363;SDS011;173;48.718;9.274;2023-07-09T13:40:03;4.20;;;3.80;;
363;SDS011;173;48.718;9.274;2023-07-09T13:42:37;4.60;;;4.10;;
363;SDS011;173;48.718;9.274;2023-07-09T13:45:18;4.30;;;3.95;;
363;SDS011;173;48.718;9.274;2023-07-09T13:47:52;4.90;;;4.60;;
363;SDS011;173;48.718;9.274;2023-07-09T13:50:24;5.00;;;4.10;;
363;SDS011;173;48.718;9.274;2023-07-09T13:52:56;4.55;;;3.95;;
363;SDS011;173;48.718;9.274;2023-07-09T13:55:28;3.70;;;3.40;;
363;SDS011;173;48.718;9.274;2023-07-09T13:58:00;3.80;;;3.50;;
363;SDS011;173;48.718;9.274;2023-07-09T14:00:32;3.95;;;3.65;;
363;SDS011;173;48.718;9.274;2023-07-09T14:03:19;4.80;;;3.70;;
363;SDS011;173;48.718;9.274;2023-07-09T14:05:57;3.85;;;3.25;;
363;SDS011;173;48.718;9.274;2023-07-09T14:08:28;4.95;;;3.80;;
363;SDS011;173;48.718;9.274;2023-07-09T14:11:00;3.30;;;3.00;;
363;SDS011;173;48.718;9.274;2023-07-09T14:13:34;3.20;;;2.90;;
363;SDS011;173;48.718;9.274;2023-07-09T14:16:08;3.60;;;3.40;;
363;SDS011;173;48.718;9.274;2023-07-09T14:18:43;3.35;;;3.10;;
363;SDS011;173;48.718;9.274;2023-07-09T14:21:23;3.65;;;3.25;;
363;SDS011;173;48.718;9.274;2023-07-09T14:23:53;3.20;;;2.95;;
363;SDS011;173;48.718;9.274;2023-07-09T14:26:26;4.00;;;3.70;;
363;SDS011;173;48.718;9.274;2023-07-09T14:28:58;3.50;;;3.20;;
363;SDS011;173;48.718;9.274;2023-07-09T14:31:31;4.10;;;3.80;;
363;SDS011;173;48.718;9.274;2023-07-09T14:34:16;6.10;;;3.70;;
363;SDS011;173;48.718;9.274;2023-07-09T14:36:53;3.50;;;3.30;;
363;SDS011;173;48.718;9.274;2023-07-09T14:39:27;3.50;;;3.20;;
363;SDS011;173;48.718;9.274;2023-07-09T14:41:59;3.85;;;3.65;;
363;SDS011;173;48.718;9.274;2023-07-09T14:44:31;3.10;;;2.90;;
363;SDS011;173;48.718;9.274;2023-07-09T14:47:04;5.25;;;3.60;;
363;SDS011;173;48.718;9.274;2023-07-09T14:49:47;4.00;;;3.60;;
363;SDS011;173;48.718;9.274;2023-07-09T14:52:20;3.80;;;3.15;;
363;SDS011;173;48.718;9.274;2023-07-09T14:54:53;3.80;;;3.30;;
363;SDS011;173;48.718;9.274;2023-07-09T14:57:25;3.80;;;3.50;;
363;SDS011;173;48.718;9.274;2023-07-09T14:59:59;3.30;;;3.00;;
363;SDS011;173;48.718;9.274;2023-07-09T15:02:36;3.50;;;3.20;;
363;SDS011;173;48.718;9.274;2023-07-09T15:05:31;4.20;;;3.80;;
363;SDS011;173;48.718;9.274;2023-07-09T15:07:50;5.00;;;3.85;;
363;SDS011;173;48.718;9.274;2023-07-09T15:10:26;5.50;;;5.10;;
363;SDS011;173;48.718;9.274;2023-07-09T15:12:58;4.10;;;3.80;;
363;SDS011;173;48.718;9.274;2023-07-09T15:15:32;3.80;;;3.30;;
363;SDS011;173;48.718;9.274;2023-07-09T15:18:08;3.70;;;3.40;;
363;SDS011;173;48.718;9.274;2023-07-09T15:20:51;3.75;;;3.45;;
363;SDS011;173;48.718;9.274;2023-07-09T15:23:23;4.20;;;3.90;;
363;SDS011;173;48.718;9.274;2023-07-09T15:25:57;4.00;;;3.70;;
363;SDS011;173;48.718;9.274;2023-07-09T15:28:29;4.50;;;3.70;;
363;SDS011;173;48.718;9.274;2023-07-09T15:31:01;4.60;;;4.30;;
363;SDS011;173;48.718;9.274;2023-07-09T15:33:35;5.00;;;3.80;;
363;SDS011;173;48.718;9.274;2023-07-09T15:36:10;4.20;;;3.90;;
363;SDS011;173;48.718;9.274;2023-07-09T15:38:43;3.85;;;3.30;;
363;SDS011;173;48.718;9.274;2023-07-09T15:43:47;3.70;;;3.40;;
363;SDS011;173;48.718;9.274;2023-07-09T15:46:19;5.00;;;4.60;;
363;SDS011;173;48.718;9.274;2023-07-09T15:48:55;5.45;;;3.45;;
363;SDS011;173;48.718;9.274;2023-07-09T15:51:27;4.10;;;3.70;;
363;SDS011;173;48.718;9.274;2023-07-09T15:53:59;3.70;;;3.40;;
363;SDS011;173;48.718;9.274;2023-07-09T15:56:35;5.30;;;4.80;;
363;SDS011;173;48.718;9.274;2023-07-09T15:59:07;3.60;;;3.30;;
363;SDS011;173;48.718;9.274;2023-07-09T16:01:56;4.50;;;3.45;;
363;SDS011;173;48.718;9.274;2023-07-09T16:07:52;3.60;;;3.30;;
363;SDS011;173;48.718;9.274;2023-07-09T16:10:29;4.85;;;3.45;;
363;SDS011;173;48.718;9.274;2023-07-09T16:13:00;3.60;;;3.40;;
363;SDS011;173;48.718;9.274;2023-07-09T16:15:31;3.90;;;3.55;;
363;SDS011;173;48.718;9.274;2023-07-09T16:18:04;4.30;;;3.90;;
363;SDS011;173;48.718;9.274;2023-07-09T16:20:38;3.75;;;3.45;;
363;SDS011;173;48.718;9.274;2023-07-09T16:23:15;4.10;;;3.80;;
363;SDS011;173;48.718;9.274;2023-07-09T16:25:49;9.00;;;8.40;;
363;SDS011;173;48.718;9.274;2023-07-09T16:28:21;13.50;;;12.60;;
363;SDS011;173;48.718;9.274;2023-07-09T16:33:25;4.70;;;4.20;;
363;SDS011;173;48.718;9.274;2023-07-09T16:35:56;4.00;;;3.70;;
363;SDS011;173;48.718;9.274;2023-07-09T16:38:31;4.60;;;4.20;;
363;SDS011;173;48.718;9.274;2023-07-09T16:41:04;5.30;;;3.75;;
363;SDS011;173;48.718;9.274;2023-07-09T16:43:39;3.70;;;3.40;;
363;SDS011;173;48.718;9.274;2023-07-09T16:46:18;4.70;;;3.90;;
363;SDS011;173;48.718;9.274;2023-07-09T16:48:51;5.10;;;3.70;;
363;SDS011;173;48.718;9.274;2023-07-09T16:51:25;6.90;;;6.20;;
363;SDS011;173;48.718;9.274;2023-07-09T16:53:57;9.30;;;8.45;;
363;SDS011;173;48.718;9.274;2023-07-09T16:56:30;4.35;;;3.80;;
363;SDS011;173;48.718;9.274;2023-07-09T16:59:02;6.35;;;5.85;;
363;SDS011;173;48.718;9.274;2023-07-09T17:01:36;6.45;;;5.85;;
363;SDS011;173;48.718;9.274;2023-07-09T17:04:19;3.95;;;3.55;;
363;SDS011;173;48.718;9.274;2023-07-09T17:06:50;3.90;;;3.60;;
363;SDS011;173;48.718;9.274;2023-07-09T17:09:23;4.10;;;3.40;;
363;SDS011;173;48.718;9.274;2023-07-09T17:11:56;4.30;;;3.20;;
363;SDS011;173;48.718;9.274;2023-07-09T17:14:28;5.35;;;3.85;;
363;SDS011;173;48.718;9.274;2023-07-09T17:17:00;4.80;;;4.40;;
363;SDS011;173;48.718;9.274;2023-07-09T17:19:34;6.45;;;5.90;;
363;SDS011;173;48.718;9.274;2023-07-09T17:24:23;5.80;;;5.30;;
363;SDS011;173;48.718;9.274;2023-07-09T17:26:57;5.90;;;4.70;;
363;SDS011;173;48.718;9.274;2023-07-09T17:29:29;4.60;;;3.90;;
363;SDS011;173;48.718;9.274;2023-07-09T17:32:01;3.70;;;3.40;;
363;SDS011;173;48.718;9.274;2023-07-09T17:34:34;3.60;;;3.30;;
363;SDS011;173;48.718;9.274;2023-07-09T17:37:16;4.00;;;3.70;;
363;SDS011;173;48.718;9.274;2023-07-09T17:39:48;3.60;;;3.10;;
363;SDS011;173;48.718;9.274;2023-07-09T17:42:20;4.60;;;4.20;;
363;SDS011;173;48.718;9.274;2023-07-09T17:44:52;3.40;;;3.10;;
363;SDS011;173;48.718;9.274;2023-07-09T17:47:24;4.00;;;3.65;;
363;SDS011;173;48.718;9.274;2023-07-09T17:49:56;3.80;;;3.50;;
363;SDS011;173;48.718;9.274;2023-07-09T17:52:28;4.80;;;3.50;;
363;SDS011;173;48.718;9.274;2023-07-09T17:55:00;3.50;;;3.00;;
363;SDS011;173;48.718;9.274;2023-07-09T17:57:32;4.30;;;3.55;;
363;SDS011;173;48.718;9.274;2023-07-09T18:02:32;3.80;;;3.50;;
363;SDS011;173;48.718;9.274;2023-07-09T18:05:19;4.45;;;3.80;;
363;SDS011;173;48.718;9.274;2023-07-09T18:16:20;4.15;;;3.75;;
363;SDS011;173;48.718;9.274;2023-07-09T18:18:52;4.75;;;4.05;;
363;SDS011;173;48.718;9.274;2023-07-09T18:21:26;5.30;;;4.20;;
363;SDS011;173;48.718;9.274;2023-07-09T18:23:58;4.60;;;4.20;;
363;SDS011;173;48.718;9.274;2023-07-09T18:26:30;4.80;;;4.40;;
363;SDS011;173;48.718;9.274;2023-07-09T18:29:02;4.70;;;4.30;;
363;SDS011;173;48.718;9.274;2023-07-09T18:31:35;4.00;;;3.70;;
363;SDS011;173;48.718;9.274;2023-07-09T18:34:10;4.10;;;3.70;;
363;SDS011;173;48.718;9.274;2023-07-09T18:36:42;5.30;;;4.30;;
363;SDS011;173;48.718;9.274;2023-07-09T18:39:12;3.75;;;3.40;;
363;SDS011;173;48.718;9.274;2023-07-09T18:41:44;4.10;;;3.80;;
363;SDS011;173;48.718;9.274;2023-07-09T18:44:17;4.00;;;3.60;;
363;SDS011;173;48.718;9.274;2023-07-09T18:46:51;3.90;;;3.55;;
363;SDS011;173;48.718;9.274;2023-07-09T18:49:23;5.30;;;3.70;;
363;SDS011;173;48.718;9.274;2023-07-09T18:51:55;4.40;;;3.90;;
363;SDS011;173;48.718;9.274;2023-07-09T18:54:27;3.90;;;3.55;;
363;SDS011;173;48.718;9.274;2023-07-09T18:56:59;4.60;;;3.80;;
363;SDS011;173;48.718;9.274;2023-07-09T18:59:33;6.10;;;4.10;;
363;SDS011;173;48.718;9.274;2023-07-09T19:02:27;6.65;;;4.10;;
363;SDS011;173;48.718;9.274;2023-07-09T19:04:51;5.50;;;5.00;;
363;SDS011;173;48.718;9.274;2023-07-09T19:07:23;4.35;;;3.70;;
363;SDS011;173;48.718;9.274;2023-07-09T19:09:56;5.35;;;4.05;;
363;SDS011;173;48.718;9.274;2023-07-09T19:12:28;4.60;;;4.20;;
363;SDS011;173;48.718;9.274;2023-07-09T19:15:00;4.60;;;4.20;;
363;SDS011;173;48.718;9.274;2023-07-09T19:17:32;4.60;;;4.20;;
363;SDS011;173;48.718;9.274;2023-07-09T19:20:13;4.57;;;4.17;;
363;SDS011;173;48.718;9.274;2023-07-09T19:22:50;4.40;;;4.00;;
363;SDS011;173;48.718;9.274;2023-07-09T19:25:24;5.15;;;4.65;;
363;SDS011;173;48.718;9.274;2023-07-09T19:27:58;5.65;;;4.85;;
363;SDS011;173;48.718;9.274;2023-07-09T19:30:30;5.30;;;4.60;;
363;SDS011;173;48.718;9.274;2023-07-09T19:33:02;5.20;;;4.70;;
363;SDS011;173;48.718;9.274;2023-07-09T19:35:36;5.30;;;4.80;;
363;SDS011;173;48.718;9.274;2023-07-09T19:38:09;5.75;;;4.10;;
363;SDS011;173;48.718;9.274;2023-07-09T19:40:40;5.00;;;4.50;;
363;SDS011;173;48.718;9.274;2023-07-09T19:43:12;8.50;;;6.70;;
363;SDS011;173;48.718;9.274;2023-07-09T19:45:46;9.00;;;8.30;;
363;SDS011;173;48.718;9.274;2023-07-09T19:48:20;6.60;;;6.00;;
363;SDS011;173;48.718;9.274;2023-07-09T19:50:54;6.10;;;5.50;;
363;SDS011;173;48.718;9.274;2023-07-09T19:53:27;7.80;;;5.30;;
363;SDS011;173;48.718;9.274;2023-07-09T19:58:29;6.60;;;6.00;;
363;SDS011;173;48.718;9.274;2023-07-09T20:01:01;7.30;;;6.60;;
363;SDS011;173;48.718;9.274;2023-07-09T20:03:39;6.75;;;5.10;;
363;SDS011;173;48.718;9.274;2023-07-09T20:06:12;7.05;;;6.40;;
363;SDS011;173;48.718;9.274;2023-07-09T20:08:45;11.23;;;7.47;;
363;SDS011;173;48.718;9.274;2023-07-09T20:11:17;9.70;;;8.90;;
363;SDS011;173;48.718;9.274;2023-07-09T20:16:22;7.10;;;6.40;;
363;SDS011;173;48.718;9.274;2023-07-09T20:18:55;6.70;;;6.10;;
363;SDS011;173;48.718;9.274;2023-07-09T20:23:58;7.30;;;4.55;;
363;SDS011;173;48.718;9.274;2023-07-09T20:28:59;5.50;;;5.00;;
363;SDS011;173;48.718;9.274;2023-07-09T20:31:31;6.90;;;4.70;;
363;SDS011;173;48.718;9.274;2023-07-09T20:34:13;5.30;;;4.40;;
363;SDS011;173;48.718;9.274;2023-07-09T20:36:51;4.43;;;4.03;;
363;SDS011;173;48.718;9.274;2023-07-09T20:39:23;5.55;;;5.05;;
363;SDS011;173;48.718;9.274;2023-07-09T20:41:55;5.00;;;4.25;;
363;SDS011;173;48.718;9.274;2023-07-09T20:44:31;4.45;;;4.05;;
363;SDS011;173;48.718;9.274;2023-07-09T20:49:48;4.60;;;4.20;;
363;SDS011;173;48.718;9.274;2023-07-09T20:52:21;5.70;;;4.60;;
363;SDS011;173;48.718;9.274;2023-07-09T20:54:53;5.20;;;4.80;;
363;SDS011;173;48.718;9.274;2023-07-09T20:57:25;6.60;;;4.90;;
363;SDS011;173;48.718;9.274;2023-07-09T20:59:59;7.70;;;5.50;;
363;SDS011;173;48.718;9.274;2023-07-09T21:02:34;6.80;;;4.40;;
363;SDS011;173;48.718;9.274;2023-07-09T21:05:06;4.60;;;4.20;;
363;SDS011;173;48.718;9.274;2023-07-09T21:07:48;6.50;;;5.20;;
363;SDS011;173;48.718;9.274;2023-07-09T21:10:19;5.30;;;4.80;;
363;SDS011;173;48.718;9.274;2023-07-09T21:12:53;5.10;;;4.60;;
363;SDS011;173;48.718;9.274;2023-07-09T21:15:27;6.60;;;5.95;;
363;SDS011;173;48.718;9.274;2023-07-09T21:18:04;9.10;;;8.30;;
363;SDS011;173;48.718;9.274;2023-07-09T21:20:36;9.00;;;8.20;;
363;SDS011;173;48.718;9.274;2023-07-09T21:23:16;9.55;;;7.60;;
363;SDS011;173;48.718;9.274;2023-07-09T21:25:51;6.50;;;5.90;;
363;SDS011;173;48.718;9.274;2023-07-09T21:28:23;6.50;;;5.90;;
363;SDS011;173;48.718;9.274;2023-07-09T21:30:55;8.10;;;6.10;;
363;SDS011;173;48.718;9.274;2023-07-09T21:33:28;5.80;;;5.30;;
363;SDS011;173;48.718;9.274;2023-07-09T21:36:00;6.80;;;5.15;;
363;SDS011;173;48.718;9.274;2023-07-09T21:38:33;7.25;;;5.60;;
363;SDS011;173;48.718;9.274;2023-07-09T21:41:05;7.10;;;5.15;;
363;SDS011;173;48.718;9.274;2023-07-09T21:43:37;5.85;;;5.20;;
363;SDS011;173;48.718;9.274;2023-07-09T21:46:23;5.90;;;4.90;;
363;SDS011;173;48.718;9.274;2023-07-09T21:48:54;6.00;;;5.20;;
363;SDS011;173;48.718;9.274;2023-07-09T21:58:39;4.80;;;4.40;;
363;SDS011;173;48.718;9.274;2023-07-09T22:01:14;6.73;;;5.13;;
